Terminal Aerodrome Forecast
Issued by NWS

Current Version | Previous Version | Text Only | Print | Product List | Glossary On
Versions: 1 2 3 4 5 6 7 8 9 10 11 12 13 14 15 16 17 18
000
FTUS43 KSGF 271100 CCA
TAFBBG
TAF COR
KBBG 271145Z 2712/2812 30009KT 4SM -RADZ BR OVC003
     FM271600 31007KT 5SM -RADZ BR SCT005 OVC015
     FM271800 33007KT P6SM BKN020 OVC070=

USA.gov is the U.S. government's official web portal to all federal, state and local government web resources and services.